sensor_id;sensor_type;location;lat;lon;timestamp;temperature;humidity
51765;DHT22;37835;53.256;6.456;2022-09-17T00:02:21;11.70;99.90
51765;DHT22;37835;53.256;6.456;2022-09-17T00:04:50;12.10;99.90
51765;DHT22;37835;53.256;6.456;2022-09-17T00:07:16;11.70;99.90
51765;DHT22;37835;53.256;6.456;2022-09-17T00:09:42;11.70;99.90
51765;DHT22;37835;53.256;6.456;2022-09-17T00:12:08;11.70;99.90
51765;DHT22;37835;53.256;6.456;2022-09-17T00:14:34;11.70;99.90
51765;DHT22;37835;53.256;6.456;2022-09-17T00:17:00;11.70;99.90
51765;DHT22;37835;53.256;6.456;2022-09-17T00:19:25;11.70;99.90
51765;DHT22;37835;53.256;6.456;2022-09-17T00:21:51;11.60;99.90
51765;DHT22;37835;53.256;6.456;2022-09-17T00:24:18;11.60;99.90
51765;DHT22;37835;53.256;6.456;2022-09-17T00:26:44;11.50;99.90
51765;DHT22;37835;53.256;6.456;2022-09-17T00:29:10;11.40;99.90
51765;DHT22;37835;53.256;6.456;2022-09-17T00:31:36;11.40;99.90
51765;DHT22;37835;53.256;6.456;2022-09-17T00:34:03;11.40;99.90
51765;DHT22;37835;53.256;6.456;2022-09-17T00:36:30;11.30;99.90
51765;DHT22;37835;53.256;6.456;2022-09-17T00:38:57;11.30;99.90
51765;DHT22;37835;53.256;6.456;2022-09-17T00:41:26;11.30;99.90
51765;DHT22;37835;53.256;6.456;2022-09-17T00:43:54;11.20;99.90
51765;DHT22;37835;53.256;6.456;2022-09-17T00:46:42;11.20;99.90
51765;DHT22;37835;53.256;6.456;2022-09-17T00:49:18;11.20;99.90
51765;DHT22;37835;53.256;6.456;2022-09-17T00:51:58;11.10;99.90
51765;DHT22;37835;53.256;6.456;2022-09-17T00:54:26;11.10;99.90
51765;DHT22;37835;53.256;6.456;2022-09-17T00:56:52;11.10;99.90
51765;DHT22;37835;53.256;6.456;2022-09-17T00:59:19;11.00;99.90
51765;DHT22;37835;53.256;6.456;2022-09-17T01:01:47;11.00;99.90
51765;DHT22;37835;53.256;6.456;2022-09-17T01:04:22;11.00;99.90
51765;DHT22;37835;53.256;6.456;2022-09-17T01:09:58;11.10;99.90
51765;DHT22;37835;53.256;6.456;2022-09-17T01:12:34;11.10;99.90
51765;DHT22;37835;53.256;6.456;2022-09-17T01:15:18;11.20;99.90
51765;DHT22;37835;53.256;6.456;2022-09-17T01:18:09;11.20;99.90
51765;DHT22;37835;53.256;6.456;2022-09-17T01:24:16;11.20;99.90
51765;DHT22;37835;53.256;6.456;2022-09-17T01:33:16;11.20;99.90
51765;DHT22;37835;53.256;6.456;2022-09-17T01:35:53;11.20;99.90
51765;DHT22;37835;53.256;6.456;2022-09-17T01:38:26;11.20;99.90
51765;DHT22;37835;53.256;6.456;2022-09-17T01:41:11;11.20;99.90
51765;DHT22;37835;53.256;6.456;2022-09-17T01:46:20;11.20;99.90
51765;DHT22;37835;53.256;6.456;2022-09-17T01:48:49;11.20;99.90
51765;DHT22;37835;53.256;6.456;2022-09-17T01:51:20;11.20;99.90
51765;DHT22;37835;53.256;6.456;2022-09-17T01:53:54;11.20;99.90
51765;DHT22;37835;53.256;6.456;2022-09-17T01:56:25;11.20;99.90
51765;DHT22;37835;53.256;6.456;2022-09-17T01:59:04;11.20;99.90
51765;DHT22;37835;53.256;6.456;2022-09-17T02:01:32;11.20;99.90
51765;DHT22;37835;53.256;6.456;2022-09-17T02:07:17;11.20;99.90
51765;DHT22;37835;53.256;6.456;2022-09-17T02:09:54;11.20;99.90
51765;DHT22;37835;53.256;6.456;2022-09-17T02:12:27;11.20;99.90
51765;DHT22;37835;53.256;6.456;2022-09-17T02:14:57;11.10;99.90
51765;DHT22;37835;53.256;6.456;2022-09-17T02:19:54;11.20;99.90
51765;DHT22;37835;53.256;6.456;2022-09-17T02:22:27;11.20;99.90
51765;DHT22;37835;53.256;6.456;2022-09-17T02:25:14;11.20;99.90
51765;DHT22;37835;53.256;6.456;2022-09-17T02:30:21;11.20;99.90
51765;DHT22;37835;53.256;6.456;2022-09-17T02:32:47;11.20;99.90
51765;DHT22;37835;53.256;6.456;2022-09-17T02:35:13;11.20;99.90
51765;DHT22;37835;53.256;6.456;2022-09-17T02:37:43;11.20;99.90
51765;DHT22;37835;53.256;6.456;2022-09-17T02:40:11;11.20;99.90
51765;DHT22;37835;53.256;6.456;2022-09-17T02:42:58;11.10;99.90
51765;DHT22;37835;53.256;6.456;2022-09-17T02:45:51;11.10;99.90
51765;DHT22;37835;53.256;6.456;2022-09-17T02:49:01;11.10;99.90
51765;DHT22;37835;53.256;6.456;2022-09-17T02:51:42;11.00;99.90
51765;DHT22;37835;53.256;6.456;2022-09-17T02:59:43;11.00;99.90
51765;DHT22;37835;53.256;6.456;2022-09-17T03:02:24;11.10;99.90
51765;DHT22;37835;53.256;6.456;2022-09-17T03:04:52;11.00;99.90
51765;DHT22;37835;53.256;6.456;2022-09-17T03:07:21;11.00;99.90
51765;DHT22;37835;53.256;6.456;2022-09-17T03:09:47;11.00;99.90
51765;DHT22;37835;53.256;6.456;2022-09-17T03:12:13;11.00;99.90
51765;DHT22;37835;53.256;6.456;2022-09-17T03:14:38;11.00;99.90
51765;DHT22;37835;53.256;6.456;2022-09-17T03:17:04;11.00;99.90
51765;DHT22;37835;53.256;6.456;2022-09-17T03:19:29;11.00;99.90
51765;DHT22;37835;53.256;6.456;2022-09-17T03:21:55;11.00;99.90
51765;DHT22;37835;53.256;6.456;2022-09-17T03:24:20;11.00;99.90
51765;DHT22;37835;53.256;6.456;2022-09-17T03:26:46;11.10;99.90
51765;DHT22;37835;53.256;6.456;2022-09-17T03:29:14;11.00;99.90
51765;DHT22;37835;53.256;6.456;2022-09-17T03:31:39;11.00;99.90
51765;DHT22;37835;53.256;6.456;2022-09-17T03:34:05;11.00;99.90
51765;DHT22;37835;53.256;6.456;2022-09-17T03:36:31;11.00;99.90
51765;DHT22;37835;53.256;6.456;2022-09-17T03:38:57;11.00;99.90
51765;DHT22;37835;53.256;6.456;2022-09-17T03:41:24;10.90;99.90
51765;DHT22;37835;53.256;6.456;2022-09-17T03:43:50;10.90;99.90
51765;DHT22;37835;53.256;6.456;2022-09-17T03:46:16;10.80;99.90
51765;DHT22;37835;53.256;6.456;2022-09-17T03:48:42;10.80;99.90
51765;DHT22;37835;53.256;6.456;2022-09-17T03:51:07;10.80;99.90
51765;DHT22;37835;53.256;6.456;2022-09-17T03:53:33;10.80;99.90
51765;DHT22;37835;53.256;6.456;2022-09-17T03:55:59;10.80;99.90
51765;DHT22;37835;53.256;6.456;2022-09-17T03:58:26;10.70;99.90
51765;DHT22;37835;53.256;6.456;2022-09-17T04:00:52;10.80;99.90
51765;DHT22;37835;53.256;6.456;2022-09-17T04:03:19;10.70;99.90
51765;DHT22;37835;53.256;6.456;2022-09-17T04:05:46;10.10;99.90
51765;DHT22;37835;53.256;6.456;2022-09-17T04:08:11;10.70;99.90
51765;DHT22;37835;53.256;6.456;2022-09-17T04:10:37;10.70;99.90
51765;DHT22;37835;53.256;6.456;2022-09-17T04:13:02;10.60;99.90
51765;DHT22;37835;53.256;6.456;2022-09-17T04:15:28;10.70;99.90
51765;DHT22;37835;53.256;6.456;2022-09-17T04:17:56;10.70;99.90
51765;DHT22;37835;53.256;6.456;2022-09-17T04:20:23;10.70;99.90
51765;DHT22;37835;53.256;6.456;2022-09-17T04:22:49;10.70;99.90
51765;DHT22;37835;53.256;6.456;2022-09-17T04:25:14;10.60;99.90
51765;DHT22;37835;53.256;6.456;2022-09-17T04:27:40;10.70;99.90
51765;DHT22;37835;53.256;6.456;2022-09-17T04:30:06;10.70;99.90
51765;DHT22;37835;53.256;6.456;2022-09-17T04:32:32;10.70;99.90
51765;DHT22;37835;53.256;6.456;2022-09-17T04:34:57;10.60;99.90
51765;DHT22;37835;53.256;6.456;2022-09-17T04:37:23;10.60;99.90
51765;DHT22;37835;53.256;6.456;2022-09-17T04:39:50;10.60;99.90
51765;DHT22;37835;53.256;6.456;2022-09-17T04:42:16;10.70;99.90
51765;DHT22;37835;53.256;6.456;2022-09-17T04:44:41;10.70;99.90
51765;DHT22;37835;53.256;6.456;2022-09-17T04:47:07;10.80;99.90
51765;DHT22;37835;53.256;6.456;2022-09-17T04:49:33;10.80;99.90
51765;DHT22;37835;53.256;6.456;2022-09-17T04:51:59;10.80;99.90
51765;DHT22;37835;53.256;6.456;2022-09-17T04:54:24;10.80;99.90
51765;DHT22;37835;53.256;6.456;2022-09-17T04:56:50;10.80;99.90
51765;DHT22;37835;53.256;6.456;2022-09-17T04:59:16;10.80;99.90
51765;DHT22;37835;53.256;6.456;2022-09-17T05:01:42;10.80;99.90
51765;DHT22;37835;53.256;6.456;2022-09-17T05:04:09;10.90;99.90
51765;DHT22;37835;53.256;6.456;2022-09-17T05:06:34;10.90;99.90
51765;DHT22;37835;53.256;6.456;2022-09-17T05:09:00;11.00;99.90
51765;DHT22;37835;53.256;6.456;2022-09-17T05:11:27;11.00;99.90
51765;DHT22;37835;53.256;6.456;2022-09-17T05:13:53;11.00;99.90
51765;DHT22;37835;53.256;6.456;2022-09-17T05:16:18;11.00;99.90
51765;DHT22;37835;53.256;6.456;2022-09-17T05:18:44;11.00;99.90
51765;DHT22;37835;53.256;6.456;2022-09-17T05:21:10;11.00;99.90
51765;DHT22;37835;53.256;6.456;2022-09-17T05:23:36;11.10;99.90
51765;DHT22;37835;53.256;6.456;2022-09-17T05:26:01;11.10;99.90
51765;DHT22;37835;53.256;6.456;2022-09-17T05:28:28;11.10;99.90
51765;DHT22;37835;53.256;6.456;2022-09-17T05:30:53;11.10;99.90
51765;DHT22;37835;53.256;6.456;2022-09-17T05:33:19;11.10;99.90
51765;DHT22;37835;53.256;6.456;2022-09-17T05:35:45;11.10;99.90
51765;DHT22;37835;53.256;6.456;2022-09-17T05:38:11;11.10;99.90
51765;DHT22;37835;53.256;6.456;2022-09-17T05:40:37;11.20;99.90
51765;DHT22;37835;53.256;6.456;2022-09-17T05:43:04;11.20;99.90
51765;DHT22;37835;53.256;6.456;2022-09-17T05:45:32;11.20;99.90
51765;DHT22;37835;53.256;6.456;2022-09-17T05:48:00;11.90;99.90
51765;DHT22;37835;53.256;6.456;2022-09-17T05:50:27;11.20;99.90
51765;DHT22;37835;53.256;6.456;2022-09-17T05:52:53;11.20;99.90
51765;DHT22;37835;53.256;6.456;2022-09-17T05:55:20;11.20;99.90
51765;DHT22;37835;53.256;6.456;2022-09-17T05:57:47;11.10;99.90
51765;DHT22;37835;53.256;6.456;2022-09-17T06:00:13;11.10;99.90
51765;DHT22;37835;53.256;6.456;2022-09-17T06:02:39;11.10;99.90
51765;DHT22;37835;53.256;6.456;2022-09-17T06:05:05;11.10;99.90
51765;DHT22;37835;53.256;6.456;2022-09-17T06:07:34;11.10;99.90
51765;DHT22;37835;53.256;6.456;2022-09-17T06:10:00;11.00;99.90
51765;DHT22;37835;53.256;6.456;2022-09-17T06:12:26;11.00;99.90
51765;DHT22;37835;53.256;6.456;2022-09-17T06:14:52;11.00;99.90
51765;DHT22;37835;53.256;6.456;2022-09-17T06:17:17;10.90;99.90
51765;DHT22;37835;53.256;6.456;2022-09-17T06:19:43;10.90;99.90
51765;DHT22;37835;53.256;6.456;2022-09-17T06:22:08;10.90;99.90
51765;DHT22;37835;53.256;6.456;2022-09-17T06:24:34;10.80;99.90
51765;DHT22;37835;53.256;6.456;2022-09-17T06:26:59;10.80;99.90
51765;DHT22;37835;53.256;6.456;2022-09-17T06:29:25;10.80;99.90
51765;DHT22;37835;53.256;6.456;2022-09-17T06:31:51;10.70;99.90
51765;DHT22;37835;53.256;6.456;2022-09-17T06:34:17;11.00;99.90
51765;DHT22;37835;53.256;6.456;2022-09-17T06:36:42;10.80;99.90
51765;DHT22;37835;53.256;6.456;2022-09-17T06:39:08;10.80;99.90
51765;DHT22;37835;53.256;6.456;2022-09-17T06:41:36;10.80;99.90
51765;DHT22;37835;53.256;6.456;2022-09-17T06:44:02;10.90;99.90
51765;DHT22;37835;53.256;6.456;2022-09-17T06:46:28;10.80;99.90
51765;DHT22;37835;53.256;6.456;2022-09-17T06:48:53;10.90;99.90
51765;DHT22;37835;53.256;6.456;2022-09-17T06:51:19;10.80;99.90
51765;DHT22;37835;53.256;6.456;2022-09-17T06:53:46;10.80;99.90
51765;DHT22;37835;53.256;6.456;2022-09-17T06:56:13;10.80;99.90
51765;DHT22;37835;53.256;6.456;2022-09-17T06:58:39;10.80;99.90
51765;DHT22;37835;53.256;6.456;2022-09-17T07:01:10;10.80;99.90
51765;DHT22;37835;53.256;6.456;2022-09-17T07:03:36;10.80;99.90
51765;DHT22;37835;53.256;6.456;2022-09-17T07:06:03;10.90;99.90
51765;DHT22;37835;53.256;6.456;2022-09-17T07:08:31;10.90;99.90
51765;DHT22;37835;53.256;6.456;2022-09-17T07:10:57;11.00;99.90
51765;DHT22;37835;53.256;6.456;2022-09-17T07:13:24;11.10;99.90
51765;DHT22;37835;53.256;6.456;2022-09-17T07:16:01;11.10;99.90
51765;DHT22;37835;53.256;6.456;2022-09-17T07:18:27;11.20;99.90
51765;DHT22;37835;53.256;6.456;2022-09-17T07:20:57;11.30;99.90
51765;DHT22;37835;53.256;6.456;2022-09-17T07:23:24;11.30;99.90
51765;DHT22;37835;53.256;6.456;2022-09-17T07:25:51;11.30;99.90
51765;DHT22;37835;53.256;6.456;2022-09-17T07:28:16;11.50;99.90
51765;DHT22;37835;53.256;6.456;2022-09-17T07:30:42;11.50;99.90
51765;DHT22;37835;53.256;6.456;2022-09-17T07:33:08;11.60;99.90
51765;DHT22;37835;53.256;6.456;2022-09-17T07:35:33;11.60;99.90
51765;DHT22;37835;53.256;6.456;2022-09-17T07:37:59;11.70;99.90
51765;DHT22;37835;53.256;6.456;2022-09-17T07:40:24;11.80;99.90
51765;DHT22;37835;53.256;6.456;2022-09-17T07:42:50;11.80;99.90
51765;DHT22;37835;53.256;6.456;2022-09-17T07:45:15;11.90;99.90
51765;DHT22;37835;53.256;6.456;2022-09-17T07:47:41;12.00;99.90
51765;DHT22;37835;53.256;6.456;2022-09-17T07:50:07;12.10;99.90
51765;DHT22;37835;53.256;6.456;2022-09-17T07:52:33;12.20;99.90
51765;DHT22;37835;53.256;6.456;2022-09-17T07:54:59;12.20;99.90
51765;DHT22;37835;53.256;6.456;2022-09-17T07:57:24;12.30;99.90
51765;DHT22;37835;53.256;6.456;2022-09-17T07:59:50;12.20;99.90
51765;DHT22;37835;53.256;6.456;2022-09-17T08:02:15;12.20;99.90
51765;DHT22;37835;53.256;6.456;2022-09-17T08:04:41;12.10;99.90
51765;DHT22;37835;53.256;6.456;2022-09-17T08:07:11;12.10;99.90
51765;DHT22;37835;53.256;6.456;2022-09-17T08:09:37;12.10;99.90
51765;DHT22;37835;53.256;6.456;2022-09-17T08:12:03;12.10;99.90
51765;DHT22;37835;53.256;6.456;2022-09-17T08:14:29;12.10;99.90
51765;DHT22;37835;53.256;6.456;2022-09-17T08:16:55;12.10;99.90
51765;DHT22;37835;53.256;6.456;2022-09-17T08:19:21;12.10;99.90
51765;DHT22;37835;53.256;6.456;2022-09-17T08:21:46;12.10;99.90
51765;DHT22;37835;53.256;6.456;2022-09-17T08:24:12;12.10;99.90
51765;DHT22;37835;53.256;6.456;2022-09-17T08:26:37;12.10;99.90
51765;DHT22;37835;53.256;6.456;2022-09-17T08:29:04;12.30;99.90
51765;DHT22;37835;53.256;6.456;2022-09-17T08:31:31;12.30;99.90
51765;DHT22;37835;53.256;6.456;2022-09-17T08:33:57;12.40;99.90
51765;DHT22;37835;53.256;6.456;2022-09-17T08:36:24;12.50;99.90
51765;DHT22;37835;53.256;6.456;2022-09-17T08:38:53;13.40;99.90
51765;DHT22;37835;53.256;6.456;2022-09-17T08:42:04;12.70;99.90
51765;DHT22;37835;53.256;6.456;2022-09-17T08:44:42;12.80;99.90
51765;DHT22;37835;53.256;6.456;2022-09-17T08:47:24;12.90;99.90
51765;DHT22;37835;53.256;6.456;2022-09-17T08:50:02;12.80;99.90
51765;DHT22;37835;53.256;6.456;2022-09-17T08:55:45;12.60;99.90
51765;DHT22;37835;53.256;6.456;2022-09-17T09:04:03;12.50;99.90
51765;DHT22;37835;53.256;6.456;2022-09-17T09:06:36;12.60;99.90
51765;DHT22;37835;53.256;6.456;2022-09-17T09:09:07;12.60;99.90
51765;DHT22;37835;53.256;6.456;2022-09-17T09:11:35;12.60;99.90
51765;DHT22;37835;53.256;6.456;2022-09-17T09:14:09;12.40;99.90
51765;DHT22;37835;53.256;6.456;2022-09-17T09:16:41;12.30;99.90
51765;DHT22;37835;53.256;6.456;2022-09-17T09:19:29;12.20;99.90
51765;DHT22;37835;53.256;6.456;2022-09-17T09:22:04;12.20;99.90
51765;DHT22;37835;53.256;6.456;2022-09-17T09:24:40;12.20;99.90
51765;DHT22;37835;53.256;6.456;2022-09-17T09:29:44;12.20;99.90
51765;DHT22;37835;53.256;6.456;2022-09-17T09:32:34;12.20;99.90
51765;DHT22;37835;53.256;6.456;2022-09-17T09:37:49;12.10;99.90
51765;DHT22;37835;53.256;6.456;2022-09-17T09:43:10;12.00;99.90
51765;DHT22;37835;53.256;6.456;2022-09-17T09:48:51;12.00;99.90
51765;DHT22;37835;53.256;6.456;2022-09-17T09:51:30;12.20;99.90
51765;DHT22;37835;53.256;6.456;2022-09-17T09:56:58;12.40;99.90
51765;DHT22;37835;53.256;6.456;2022-09-17T09:59:24;12.50;99.90
51765;DHT22;37835;53.256;6.456;2022-09-17T10:01:50;12.70;99.90
51765;DHT22;37835;53.256;6.456;2022-09-17T10:04:24;12.90;99.90
51765;DHT22;37835;53.256;6.456;2022-09-17T10:06:52;13.00;99.90
51765;DHT22;37835;53.256;6.456;2022-09-17T10:09:19;13.20;99.90
51765;DHT22;37835;53.256;6.456;2022-09-17T10:12:04;13.30;99.90
51765;DHT22;37835;53.256;6.456;2022-09-17T10:14:32;13.40;99.90
51765;DHT22;37835;53.256;6.456;2022-09-17T10:19:42;13.30;99.90
51765;DHT22;37835;53.256;6.456;2022-09-17T10:22:31;13.20;99.90
51765;DHT22;37835;53.256;6.456;2022-09-17T10:24:59;13.10;99.90
51765;DHT22;37835;53.256;6.456;2022-09-17T10:27:26;12.90;99.90
51765;DHT22;37835;53.256;6.456;2022-09-17T10:30:21;12.80;99.90
51765;DHT22;37835;53.256;6.456;2022-09-17T10:33:15;12.80;99.90
51765;DHT22;37835;53.256;6.456;2022-09-17T10:35:56;12.80;99.90
51765;DHT22;37835;53.256;6.456;2022-09-17T10:38:28;12.80;99.90
51765;DHT22;37835;53.256;6.456;2022-09-17T10:41:19;12.80;99.90
51765;DHT22;37835;53.256;6.456;2022-09-17T10:43:50;12.80;99.90
51765;DHT22;37835;53.256;6.456;2022-09-17T10:46:22;12.90;99.90
51765;DHT22;37835;53.256;6.456;2022-09-17T10:48:56;12.90;99.90
51765;DHT22;37835;53.256;6.456;2022-09-17T10:51:24;12.90;99.90
51765;DHT22;37835;53.256;6.456;2022-09-17T10:54:05;12.90;99.90
51765;DHT22;37835;53.256;6.456;2022-09-17T10:56:34;12.90;99.90
51765;DHT22;37835;53.256;6.456;2022-09-17T11:05:03;13.30;99.90
51765;DHT22;37835;53.256;6.456;2022-09-17T11:10:26;13.60;99.90
51765;DHT22;37835;53.256;6.456;2022-09-17T11:13:09;13.80;99.90
51765;DHT22;37835;53.256;6.456;2022-09-17T11:18:44;13.90;99.90
51765;DHT22;37835;53.256;6.456;2022-09-17T11:21:16;14.00;99.90
51765;DHT22;37835;53.256;6.456;2022-09-17T11:23:53;14.10;99.90
51765;DHT22;37835;53.256;6.456;2022-09-17T11:26:26;14.10;99.90
51765;DHT22;37835;53.256;6.456;2022-09-17T11:35:10;14.20;99.90
51765;DHT22;37835;53.256;6.456;2022-09-17T11:40:49;14.40;99.90
51765;DHT22;37835;53.256;6.456;2022-09-17T11:43:34;14.50;99.90
51765;DHT22;37835;53.256;6.456;2022-09-17T11:46:14;14.70;99.90
51765;DHT22;37835;53.256;6.456;2022-09-17T11:51:21;14.80;99.90
51765;DHT22;37835;53.256;6.456;2022-09-17T11:54:12;14.70;99.90
51765;DHT22;37835;53.256;6.456;2022-09-17T11:56:43;14.60;99.90
51765;DHT22;37835;53.256;6.456;2022-09-17T11:59:33;14.60;99.90
51765;DHT22;37835;53.256;6.456;2022-09-17T12:05:03;14.80;99.90
51765;DHT22;37835;53.256;6.456;2022-09-17T12:15:39;15.10;99.90
51765;DHT22;37835;53.256;6.456;2022-09-17T12:20:58;15.30;99.90
51765;DHT22;37835;53.256;6.456;2022-09-17T12:28:50;15.30;99.90
51765;DHT22;37835;53.256;6.456;2022-09-17T12:31:39;15.40;99.90
51765;DHT22;37835;53.256;6.456;2022-09-17T12:34:27;15.40;99.90
51765;DHT22;37835;53.256;6.456;2022-09-17T12:37:37;15.40;99.90
51765;DHT22;37835;53.256;6.456;2022-09-17T12:40:19;15.40;99.90
51765;DHT22;37835;53.256;6.456;2022-09-17T12:43:11;15.50;99.90
51765;DHT22;37835;53.256;6.456;2022-09-17T12:51:24;15.50;99.90
51765;DHT22;37835;53.256;6.456;2022-09-17T12:54:22;15.50;99.90
51765;DHT22;37835;53.256;6.456;2022-09-17T13:02:35;15.50;99.90
51765;DHT22;37835;53.256;6.456;2022-09-17T13:05:16;15.50;99.90
51765;DHT22;37835;53.256;6.456;2022-09-17T13:16:20;15.40;99.90
51765;DHT22;37835;53.256;6.456;2022-09-17T13:21:39;15.30;99.90
51765;DHT22;37835;53.256;6.456;2022-09-17T13:24:16;15.30;99.90
51765;DHT22;37835;53.256;6.456;2022-09-17T13:26:42;15.30;99.90
51765;DHT22;37835;53.256;6.456;2022-09-17T13:29:10;15.40;99.90
51765;DHT22;37835;53.256;6.456;2022-09-17T13:34:26;15.50;99.90
51765;DHT22;37835;53.256;6.456;2022-09-17T13:36:55;15.50;99.90
51765;DHT22;37835;53.256;6.456;2022-09-17T13:39:35;15.50;99.90
51765;DHT22;37835;53.256;6.456;2022-09-17T13:44:44;15.70;99.90
51765;DHT22;37835;53.256;6.456;2022-09-17T13:47:26;15.70;99.90
51765;DHT22;37835;53.256;6.456;2022-09-17T13:50:03;15.70;99.90
51765;DHT22;37835;53.256;6.456;2022-09-17T13:52:37;15.70;99.90
51765;DHT22;37835;53.256;6.456;2022-09-17T13:55:05;15.70;99.90
51765;DHT22;37835;53.256;6.456;2022-09-17T13:57:31;15.70;99.90
51765;DHT22;37835;53.256;6.456;2022-09-17T13:59:59;15.70;99.90
51765;DHT22;37835;53.256;6.456;2022-09-17T14:02:30;15.70;99.90
51765;DHT22;37835;53.256;6.456;2022-09-17T14:05:22;15.80;99.90
51765;DHT22;37835;53.256;6.456;2022-09-17T14:07:49;15.80;99.90
51765;DHT22;37835;53.256;6.456;2022-09-17T14:12:50;15.30;99.90
51765;DHT22;37835;53.256;6.456;2022-09-17T14:15:35;15.10;99.90
51765;DHT22;37835;53.256;6.456;2022-09-17T14:20:54;14.40;99.90
51765;DHT22;37835;53.256;6.456;2022-09-17T14:23:34;14.40;99.90
51765;DHT22;37835;53.256;6.456;2022-09-17T14:26:07;14.40;99.90
51765;DHT22;37835;53.256;6.456;2022-09-17T14:28:47;14.20;99.90
51765;DHT22;37835;53.256;6.456;2022-09-17T14:31:17;14.20;99.90
51765;DHT22;37835;53.256;6.456;2022-09-17T14:33:46;14.10;99.90
51765;DHT22;37835;53.256;6.456;2022-09-17T14:36:19;14.00;99.90
51765;DHT22;37835;53.256;6.456;2022-09-17T14:38:51;13.90;99.90
51765;DHT22;37835;53.256;6.456;2022-09-17T14:46:19;13.90;99.90
51765;DHT22;37835;53.256;6.456;2022-09-17T14:48:45;14.00;99.90
51765;DHT22;37835;53.256;6.456;2022-09-17T14:56:57;14.20;99.90
51765;DHT22;37835;53.256;6.456;2022-09-17T14:59:43;14.30;99.90
51765;DHT22;37835;53.256;6.456;2022-09-17T15:03:18;14.40;99.90
51765;DHT22;37835;53.256;6.456;2022-09-17T15:05:29;14.50;99.90
51765;DHT22;37835;53.256;6.456;2022-09-17T15:08:12;14.50;99.90
51765;DHT22;37835;53.256;6.456;2022-09-17T15:10:59;14.50;99.90
51765;DHT22;37835;53.256;6.456;2022-09-17T15:13:28;14.50;99.90
51765;DHT22;37835;53.256;6.456;2022-09-17T15:18:30;14.50;99.90
51765;DHT22;37835;53.256;6.456;2022-09-17T15:20:58;14.60;99.90
51765;DHT22;37835;53.256;6.456;2022-09-17T15:23:26;14.60;99.90
51765;DHT22;37835;53.256;6.456;2022-09-17T15:25:55;14.50;99.90
51765;DHT22;37835;53.256;6.456;2022-09-17T15:28:28;14.30;99.90
51765;DHT22;37835;53.256;6.456;2022-09-17T15:30:55;14.10;99.90
51765;DHT22;37835;53.256;6.456;2022-09-17T15:33:21;13.90;99.90
51765;DHT22;37835;53.256;6.456;2022-09-17T15:38:40;13.60;99.90
51765;DHT22;37835;53.256;6.456;2022-09-17T15:43:45;13.40;99.90
51765;DHT22;37835;53.256;6.456;2022-09-17T15:46:30;13.30;99.90
51765;DHT22;37835;53.256;6.456;2022-09-17T15:48:58;13.30;99.90
51765;DHT22;37835;53.256;6.456;2022-09-17T15:51:29;13.20;99.90
51765;DHT22;37835;53.256;6.456;2022-09-17T15:53:57;13.10;99.90
51765;DHT22;37835;53.256;6.456;2022-09-17T15:56:30;13.10;99.90
51765;DHT22;37835;53.256;6.456;2022-09-17T15:59:15;13.10;99.90
51765;DHT22;37835;53.256;6.456;2022-09-17T16:04:19;13.20;99.90
51765;DHT22;37835;53.256;6.456;2022-09-17T16:06:52;13.20;99.90
51765;DHT22;37835;53.256;6.456;2022-09-17T16:09:40;13.20;99.90
51765;DHT22;37835;53.256;6.456;2022-09-17T16:12:09;13.20;99.90
51765;DHT22;37835;53.256;6.456;2022-09-17T16:14:35;13.30;99.90
51765;DHT22;37835;53.256;6.456;2022-09-17T16:20:27;13.30;99.90
51765;DHT22;37835;53.256;6.456;2022-09-17T16:22:54;13.40;99.90
51765;DHT22;37835;53.256;6.456;2022-09-17T16:25:26;13.40;99.90
51765;DHT22;37835;53.256;6.456;2022-09-17T16:28:11;13.40;99.90
51765;DHT22;37835;53.256;6.456;2022-09-17T16:30:40;13.40;99.90
51765;DHT22;37835;53.256;6.456;2022-09-17T16:33:09;13.40;99.90
51765;DHT22;37835;53.256;6.456;2022-09-17T16:35:35;12.60;99.90
51765;DHT22;37835;53.256;6.456;2022-09-17T16:38:02;13.40;99.90
51765;DHT22;37835;53.256;6.456;2022-09-17T16:40:28;13.50;99.90
51765;DHT22;37835;53.256;6.456;2022-09-17T16:43:00;13.50;99.90
51765;DHT22;37835;53.256;6.456;2022-09-17T16:45:27;13.50;99.90
51765;DHT22;37835;53.256;6.456;2022-09-17T16:47:53;13.60;99.90
51765;DHT22;37835;53.256;6.456;2022-09-17T16:50:18;13.50;99.90
51765;DHT22;37835;53.256;6.456;2022-09-17T16:52:44;13.50;99.90
51765;DHT22;37835;53.256;6.456;2022-09-17T16:55:13;13.40;99.90
51765;DHT22;37835;53.256;6.456;2022-09-17T16:57:39;13.40;99.90
51765;DHT22;37835;53.256;6.456;2022-09-17T17:00:06;13.30;99.90
51765;DHT22;37835;53.256;6.456;2022-09-17T17:02:35;13.30;99.90
51765;DHT22;37835;53.256;6.456;2022-09-17T17:05:00;13.20;99.90
51765;DHT22;37835;53.256;6.456;2022-09-17T17:07:26;13.20;99.90
51765;DHT22;37835;53.256;6.456;2022-09-17T17:09:52;13.10;99.90
51765;DHT22;37835;53.256;6.456;2022-09-17T17:12:18;13.00;99.90
51765;DHT22;37835;53.256;6.456;2022-09-17T17:14:43;12.90;99.90
51765;DHT22;37835;53.256;6.456;2022-09-17T17:17:15;12.90;99.90
51765;DHT22;37835;53.256;6.456;2022-09-17T17:19:40;12.80;99.90
51765;DHT22;37835;53.256;6.456;2022-09-17T17:22:06;12.70;99.90
51765;DHT22;37835;53.256;6.456;2022-09-17T17:24:33;12.60;99.90
51765;DHT22;37835;53.256;6.456;2022-09-17T17:26:58;12.60;99.90
51765;DHT22;37835;53.256;6.456;2022-09-17T17:29:24;12.40;99.90
51765;DHT22;37835;53.256;6.456;2022-09-17T17:31:50;12.30;99.90
51765;DHT22;37835;53.256;6.456;2022-09-17T17:34:15;12.30;99.90
51765;DHT22;37835;53.256;6.456;2022-09-17T17:36:41;12.10;99.90
51765;DHT22;37835;53.256;6.456;2022-09-17T17:39:07;12.10;99.90
51765;DHT22;37835;53.256;6.456;2022-09-17T17:41:34;12.10;99.90
51765;DHT22;37835;53.256;6.456;2022-09-17T17:43:59;12.00;99.90
51765;DHT22;37835;53.256;6.456;2022-09-17T17:46:25;12.00;99.90
51765;DHT22;37835;53.256;6.456;2022-09-17T17:48:51;11.80;99.90
51765;DHT22;37835;53.256;6.456;2022-09-17T17:51:17;12.10;99.90
51765;DHT22;37835;53.256;6.456;2022-09-17T17:53:44;11.90;99.90
51765;DHT22;37835;53.256;6.456;2022-09-17T17:56:11;11.90;99.90
51765;DHT22;37835;53.256;6.456;2022-09-17T17:58:37;11.80;99.90
51765;DHT22;37835;53.256;6.456;2022-09-17T18:01:15;11.80;99.90
51765;DHT22;37835;53.256;6.456;2022-09-17T18:03:41;11.80;99.90
51765;DHT22;37835;53.256;6.456;2022-09-17T18:06:07;11.70;99.90
51765;DHT22;37835;53.256;6.456;2022-09-17T18:08:38;11.70;99.90
51765;DHT22;37835;53.256;6.456;2022-09-17T18:11:05;11.60;99.90
51765;DHT22;37835;53.256;6.456;2022-09-17T18:13:35;11.60;99.90
51765;DHT22;37835;53.256;6.456;2022-09-17T18:16:02;11.60;99.90
51765;DHT22;37835;53.256;6.456;2022-09-17T18:18:36;11.50;99.90
51765;DHT22;37835;53.256;6.456;2022-09-17T18:21:05;11.50;99.90
51765;DHT22;37835;53.256;6.456;2022-09-17T18:23:33;11.40;99.90
51765;DHT22;37835;53.256;6.456;2022-09-17T18:26:00;11.40;99.90
51765;DHT22;37835;53.256;6.456;2022-09-17T18:28:27;11.40;99.90